sensor_id;sensor_type;location;lat;lon;timestamp;temperature;humidity
40960;DHT22;27842;52.272;8.052;2023-07-13T00:00:10;19.90;78.90
40960;DHT22;27842;52.272;8.052;2023-07-13T00:02:36;19.90;79.00
40960;DHT22;27842;52.272;8.052;2023-07-13T00:05:02;19.80;79.00
40960;DHT22;27842;52.272;8.052;2023-07-13T00:07:27;19.80;79.20
40960;DHT22;27842;52.272;8.052;2023-07-13T00:09:53;19.70;79.20
40960;DHT22;27842;52.272;8.052;2023-07-13T00:12:22;19.70;79.30
40960;DHT22;27842;52.272;8.052;2023-07-13T00:14:48;19.70;79.20
40960;DHT22;27842;52.272;8.052;2023-07-13T00:17:15;19.70;79.20
40960;DHT22;27842;52.272;8.052;2023-07-13T00:19:41;19.70;79.30
40960;DHT22;27842;52.272;8.052;2023-07-13T00:22:06;19.70;79.40
40960;DHT22;27842;52.272;8.052;2023-07-13T00:24:31;19.60;79.30
40960;DHT22;27842;52.272;8.052;2023-07-13T00:26:57;19.60;80.30
40960;DHT22;27842;52.272;8.052;2023-07-13T00:29:22;19.60;79.30
40960;DHT22;27842;52.272;8.052;2023-07-13T00:31:48;19.60;79.30
40960;DHT22;27842;52.272;8.052;2023-07-13T00:34:13;19.60;79.80
40960;DHT22;27842;52.272;8.052;2023-07-13T00:36:39;19.60;79.70
40960;DHT22;27842;52.272;8.052;2023-07-13T00:39:04;19.50;79.50
40960;DHT22;27842;52.272;8.052;2023-07-13T00:41:30;19.50;79.60
40960;DHT22;27842;52.272;8.052;2023-07-13T00:43:56;19.50;79.60
40960;DHT22;27842;52.272;8.052;2023-07-13T00:46:23;19.40;79.50
40960;DHT22;27842;52.272;8.052;2023-07-13T00:48:49;19.40;79.50
40960;DHT22;27842;52.272;8.052;2023-07-13T00:51:17;19.40;79.60
40960;DHT22;27842;52.272;8.052;2023-07-13T00:53:43;19.40;79.60
40960;DHT22;27842;52.272;8.052;2023-07-13T00:56:08;19.40;79.50
40960;DHT22;27842;52.272;8.052;2023-07-13T00:58:34;19.40;79.60
40960;DHT22;27842;52.272;8.052;2023-07-13T01:01:00;19.40;79.60
40960;DHT22;27842;52.272;8.052;2023-07-13T01:03:26;19.40;79.50
40960;DHT22;27842;52.272;8.052;2023-07-13T01:05:51;19.30;79.60
40960;DHT22;27842;52.272;8.052;2023-07-13T01:08:19;19.30;79.60
40960;DHT22;27842;52.272;8.052;2023-07-13T01:10:52;19.30;79.60
40960;DHT22;27842;52.272;8.052;2023-07-13T01:13:18;19.30;79.60
40960;DHT22;27842;52.272;8.052;2023-07-13T01:15:48;19.20;79.60
40960;DHT22;27842;52.272;8.052;2023-07-13T01:18:15;19.20;79.60
40960;DHT22;27842;52.272;8.052;2023-07-13T01:20:50;19.20;79.60
40960;DHT22;27842;52.272;8.052;2023-07-13T01:23:15;19.30;79.60
40960;DHT22;27842;52.272;8.052;2023-07-13T01:25:41;19.20;79.60
40960;DHT22;27842;52.272;8.052;2023-07-13T01:28:07;19.20;79.60
40960;DHT22;27842;52.272;8.052;2023-07-13T01:30:34;19.20;79.70
40960;DHT22;27842;52.272;8.052;2023-07-13T01:33:00;19.10;79.60
40960;DHT22;27842;52.272;8.052;2023-07-13T01:35:25;19.10;79.70
40960;DHT22;27842;52.272;8.052;2023-07-13T01:37:52;19.10;79.70
40960;DHT22;27842;52.272;8.052;2023-07-13T01:40:18;19.10;79.80
40960;DHT22;27842;52.272;8.052;2023-07-13T01:42:43;19.00;79.80
40960;DHT22;27842;52.272;8.052;2023-07-13T01:45:09;19.00;79.90
40960;DHT22;27842;52.272;8.052;2023-07-13T01:47:35;19.10;79.80
40960;DHT22;27842;52.272;8.052;2023-07-13T01:50:00;19.00;79.80
40960;DHT22;27842;52.272;8.052;2023-07-13T01:52:26;19.00;79.70
40960;DHT22;27842;52.272;8.052;2023-07-13T01:54:51;19.00;79.70
40960;DHT22;27842;52.272;8.052;2023-07-13T01:57:17;19.00;80.00
40960;DHT22;27842;52.272;8.052;2023-07-13T01:59:42;19.00;79.90
40960;DHT22;27842;52.272;8.052;2023-07-13T02:02:07;18.90;79.90
40960;DHT22;27842;52.272;8.052;2023-07-13T02:04:33;18.90;79.90
40960;DHT22;27842;52.272;8.052;2023-07-13T02:06:59;19.00;80.00
40960;DHT22;27842;52.272;8.052;2023-07-13T02:09:24;18.90;79.90
40960;DHT22;27842;52.272;8.052;2023-07-13T02:11:49;18.90;80.00
40960;DHT22;27842;52.272;8.052;2023-07-13T02:14:15;18.90;79.90
40960;DHT22;27842;52.272;8.052;2023-07-13T02:16:41;18.90;80.00
40960;DHT22;27842;52.272;8.052;2023-07-13T02:19:06;18.90;80.00
40960;DHT22;27842;52.272;8.052;2023-07-13T02:21:32;18.90;80.00
40960;DHT22;27842;52.272;8.052;2023-07-13T02:23:57;18.90;80.20
40960;DHT22;27842;52.272;8.052;2023-07-13T02:26:23;18.90;80.80
40960;DHT22;27842;52.272;8.052;2023-07-13T02:28:48;18.90;80.00
40960;DHT22;27842;52.272;8.052;2023-07-13T02:31:14;18.90;81.30
40960;DHT22;27842;52.272;8.052;2023-07-13T02:33:41;18.80;80.00
40960;DHT22;27842;52.272;8.052;2023-07-13T02:36:07;18.80;80.20
40960;DHT22;27842;52.272;8.052;2023-07-13T02:38:33;18.80;80.20
40960;DHT22;27842;52.272;8.052;2023-07-13T02:41:00;18.80;80.30
40960;DHT22;27842;52.272;8.052;2023-07-13T02:43:27;18.80;80.20
40960;DHT22;27842;52.272;8.052;2023-07-13T02:45:52;18.80;80.30
40960;DHT22;27842;52.272;8.052;2023-07-13T02:48:18;18.70;80.30
40960;DHT22;27842;52.272;8.052;2023-07-13T02:50:44;18.70;80.20
40960;DHT22;27842;52.272;8.052;2023-07-13T02:53:09;18.80;81.00
40960;DHT22;27842;52.272;8.052;2023-07-13T02:55:35;18.70;81.40
40960;DHT22;27842;52.272;8.052;2023-07-13T02:58:00;18.80;80.30
40960;DHT22;27842;52.272;8.052;2023-07-13T03:00:26;18.80;80.30
40960;DHT22;27842;52.272;8.052;2023-07-13T03:02:53;18.80;80.40
40960;DHT22;27842;52.272;8.052;2023-07-13T03:05:18;18.80;80.30
40960;DHT22;27842;52.272;8.052;2023-07-13T03:07:44;18.80;80.30
40960;DHT22;27842;52.272;8.052;2023-07-13T03:10:09;18.80;80.50
40960;DHT22;27842;52.272;8.052;2023-07-13T03:12:35;18.80;81.90
40960;DHT22;27842;52.272;8.052;2023-07-13T03:15:00;18.70;81.10
40960;DHT22;27842;52.272;8.052;2023-07-13T03:17:26;18.70;81.80
40960;DHT22;27842;52.272;8.052;2023-07-13T03:19:51;18.80;80.70
40960;DHT22;27842;52.272;8.052;2023-07-13T03:22:17;18.70;80.90
40960;DHT22;27842;52.272;8.052;2023-07-13T03:24:43;18.70;80.70
40960;DHT22;27842;52.272;8.052;2023-07-13T03:27:08;18.70;80.90
40960;DHT22;27842;52.272;8.052;2023-07-13T03:29:34;18.70;80.70
40960;DHT22;27842;52.272;8.052;2023-07-13T03:31:59;18.70;80.60
40960;DHT22;27842;52.272;8.052;2023-07-13T03:34:25;18.70;81.90
40960;DHT22;27842;52.272;8.052;2023-07-13T03:36:53;18.70;80.70
40960;DHT22;27842;52.272;8.052;2023-07-13T03:39:18;18.70;80.90
40960;DHT22;27842;52.272;8.052;2023-07-13T03:41:44;18.70;80.80
40960;DHT22;27842;52.272;8.052;2023-07-13T03:44:09;18.70;80.70
40960;DHT22;27842;52.272;8.052;2023-07-13T03:46:35;18.70;80.70
40960;DHT22;27842;52.272;8.052;2023-07-13T03:49:00;18.70;80.80
40960;DHT22;27842;52.272;8.052;2023-07-13T03:51:26;18.70;80.90
40960;DHT22;27842;52.272;8.052;2023-07-13T03:53:51;18.60;81.70
40960;DHT22;27842;52.272;8.052;2023-07-13T03:56:17;18.60;81.20
40960;DHT22;27842;52.272;8.052;2023-07-13T03:58:44;18.60;81.00
40960;DHT22;27842;52.272;8.052;2023-07-13T04:01:11;18.50;81.00
40960;DHT22;27842;52.272;8.052;2023-07-13T04:03:36;18.50;81.00
40960;DHT22;27842;52.272;8.052;2023-07-13T04:06:03;18.50;81.40
40960;DHT22;27842;52.272;8.052;2023-07-13T04:08:29;18.50;81.00
40960;DHT22;27842;52.272;8.052;2023-07-13T04:10:55;18.50;81.20
40960;DHT22;27842;52.272;8.052;2023-07-13T04:13:21;18.50;81.00
40960;DHT22;27842;52.272;8.052;2023-07-13T04:15:46;18.50;81.10
40960;DHT22;27842;52.272;8.052;2023-07-13T04:18:12;18.50;81.10
40960;DHT22;27842;52.272;8.052;2023-07-13T04:20:37;18.40;81.10
40960;DHT22;27842;52.272;8.052;2023-07-13T04:23:03;18.40;81.10
40960;DHT22;27842;52.272;8.052;2023-07-13T04:25:28;18.40;81.40
40960;DHT22;27842;52.272;8.052;2023-07-13T04:27:54;18.40;81.40
40960;DHT22;27842;52.272;8.052;2023-07-13T04:30:20;18.30;81.30
40960;DHT22;27842;52.272;8.052;2023-07-13T04:32:45;18.30;81.40
40960;DHT22;27842;52.272;8.052;2023-07-13T04:35:11;18.30;81.50
40960;DHT22;27842;52.272;8.052;2023-07-13T04:37:37;18.30;81.50
40960;DHT22;27842;52.272;8.052;2023-07-13T04:40:03;18.30;81.60
40960;DHT22;27842;52.272;8.052;2023-07-13T04:42:29;18.30;81.40
40960;DHT22;27842;52.272;8.052;2023-07-13T04:44:55;18.30;81.40
40960;DHT22;27842;52.272;8.052;2023-07-13T04:47:20;18.30;81.30
40960;DHT22;27842;52.272;8.052;2023-07-13T04:49:46;18.30;81.40
40960;DHT22;27842;52.272;8.052;2023-07-13T04:52:11;18.30;81.40
40960;DHT22;27842;52.272;8.052;2023-07-13T04:54:37;18.30;81.50
40960;DHT22;27842;52.272;8.052;2023-07-13T04:57:06;18.30;81.60
40960;DHT22;27842;52.272;8.052;2023-07-13T04:59:32;18.30;81.60
40960;DHT22;27842;52.272;8.052;2023-07-13T05:01:57;18.30;82.00
40960;DHT22;27842;52.272;8.052;2023-07-13T05:04:23;18.40;81.60
40960;DHT22;27842;52.272;8.052;2023-07-13T05:06:48;18.30;81.80
40960;DHT22;27842;52.272;8.052;2023-07-13T05:09:13;18.30;82.00
40960;DHT22;27842;52.272;8.052;2023-07-13T05:11:39;18.40;81.80
40960;DHT22;27842;52.272;8.052;2023-07-13T05:14:04;18.30;82.80
40960;DHT22;27842;52.272;8.052;2023-07-13T05:16:30;18.30;82.50
40960;DHT22;27842;52.272;8.052;2023-07-13T05:18:57;18.30;83.10
40960;DHT22;27842;52.272;8.052;2023-07-13T05:21:22;18.30;82.30
40960;DHT22;27842;52.272;8.052;2023-07-13T05:23:48;18.30;83.30
40960;DHT22;27842;52.272;8.052;2023-07-13T05:26:13;18.40;82.10
40960;DHT22;27842;52.272;8.052;2023-07-13T05:28:39;18.40;82.10
40960;DHT22;27842;52.272;8.052;2023-07-13T05:31:04;18.40;82.10
40960;DHT22;27842;52.272;8.052;2023-07-13T05:33:30;18.40;82.20
40960;DHT22;27842;52.272;8.052;2023-07-13T05:35:56;18.40;82.00
40960;DHT22;27842;52.272;8.052;2023-07-13T05:38:21;18.50;82.40
40960;DHT22;27842;52.272;8.052;2023-07-13T05:40:47;18.50;82.10
40960;DHT22;27842;52.272;8.052;2023-07-13T05:43:14;18.50;82.10
40960;DHT22;27842;52.272;8.052;2023-07-13T05:45:40;18.60;83.00
40960;DHT22;27842;52.272;8.052;2023-07-13T05:48:05;18.60;82.20
40960;DHT22;27842;52.272;8.052;2023-07-13T05:50:31;18.60;82.20
40960;DHT22;27842;52.272;8.052;2023-07-13T05:52:57;18.60;82.70
40960;DHT22;27842;52.272;8.052;2023-07-13T05:55:22;18.60;83.00
40960;DHT22;27842;52.272;8.052;2023-07-13T05:57:48;18.50;82.80
40960;DHT22;27842;52.272;8.052;2023-07-13T06:00:13;18.50;83.30
40960;DHT22;27842;52.272;8.052;2023-07-13T06:02:39;18.50;85.10
40960;DHT22;27842;52.272;8.052;2023-07-13T06:05:05;18.50;83.50
40960;DHT22;27842;52.272;8.052;2023-07-13T06:07:30;18.50;84.60
40960;DHT22;27842;52.272;8.052;2023-07-13T06:09:56;18.50;83.70
40960;DHT22;27842;52.272;8.052;2023-07-13T06:12:21;18.50;84.10
40960;DHT22;27842;52.272;8.052;2023-07-13T06:14:47;18.60;83.50
40960;DHT22;27842;52.272;8.052;2023-07-13T06:17:12;18.60;84.60
40960;DHT22;27842;52.272;8.052;2023-07-13T06:19:37;18.60;83.70
40960;DHT22;27842;52.272;8.052;2023-07-13T06:22:03;18.60;83.70
40960;DHT22;27842;52.272;8.052;2023-07-13T06:24:29;18.70;83.70
40960;DHT22;27842;52.272;8.052;2023-07-13T06:26:54;18.80;83.70
40960;DHT22;27842;52.272;8.052;2023-07-13T06:29:19;18.80;84.10
40960;DHT22;27842;52.272;8.052;2023-07-13T06:31:45;18.80;83.80
40960;DHT22;27842;52.272;8.052;2023-07-13T06:34:10;18.90;84.40
40960;DHT22;27842;52.272;8.052;2023-07-13T06:36:36;19.00;83.60
40960;DHT22;27842;52.272;8.052;2023-07-13T06:39:02;19.00;83.70
40960;DHT22;27842;52.272;8.052;2023-07-13T06:41:27;19.00;83.60
40960;DHT22;27842;52.272;8.052;2023-07-13T06:43:53;19.10;84.10
40960;DHT22;27842;52.272;8.052;2023-07-13T06:46:22;19.20;84.00
40960;DHT22;27842;52.272;8.052;2023-07-13T06:48:48;19.20;84.30
40960;DHT22;27842;52.272;8.052;2023-07-13T06:51:13;19.30;83.70
40960;DHT22;27842;52.272;8.052;2023-07-13T06:53:39;19.30;84.60
40960;DHT22;27842;52.272;8.052;2023-07-13T06:56:04;19.30;83.50
40960;DHT22;27842;52.272;8.052;2023-07-13T06:58:30;19.40;83.60
40960;DHT22;27842;52.272;8.052;2023-07-13T07:00:56;19.40;85.10
40960;DHT22;27842;52.272;8.052;2023-07-13T07:03:21;19.40;85.20
40960;DHT22;27842;52.272;8.052;2023-07-13T07:05:47;19.50;85.20
40960;DHT22;27842;52.272;8.052;2023-07-13T07:08:12;19.50;83.70
40960;DHT22;27842;52.272;8.052;2023-07-13T07:10:38;19.60;84.00
40960;DHT22;27842;52.272;8.052;2023-07-13T07:13:03;19.70;82.80
40960;DHT22;27842;52.272;8.052;2023-07-13T07:15:29;19.80;83.70
40960;DHT22;27842;52.272;8.052;2023-07-13T07:17:54;19.90;82.90
40960;DHT22;27842;52.272;8.052;2023-07-13T07:20:20;20.00;82.80
40960;DHT22;27842;52.272;8.052;2023-07-13T07:22:46;20.10;82.60
40960;DHT22;27842;52.272;8.052;2023-07-13T07:25:12;20.20;83.40
40960;DHT22;27842;52.272;8.052;2023-07-13T07:27:37;20.20;84.10
40960;DHT22;27842;52.272;8.052;2023-07-13T07:30:03;20.30;82.60
40960;DHT22;27842;52.272;8.052;2023-07-13T07:32:29;20.40;82.30
40960;DHT22;27842;52.272;8.052;2023-07-13T07:34:56;20.50;82.60
40960;DHT22;27842;52.272;8.052;2023-07-13T07:37:21;20.60;82.50
40960;DHT22;27842;52.272;8.052;2023-07-13T07:39:47;20.60;82.00
40960;DHT22;27842;52.272;8.052;2023-07-13T07:42:13;20.70;82.80
40960;DHT22;27842;52.272;8.052;2023-07-13T07:44:39;20.70;81.70
40960;DHT22;27842;52.272;8.052;2023-07-13T07:47:05;20.80;81.20
40960;DHT22;27842;52.272;8.052;2023-07-13T07:49:31;20.90;81.10
40960;DHT22;27842;52.272;8.052;2023-07-13T07:51:56;20.90;81.20
40960;DHT22;27842;52.272;8.052;2023-07-13T07:54:22;20.90;81.80
40960;DHT22;27842;52.272;8.052;2023-07-13T07:56:47;21.00;81.60
40960;DHT22;27842;52.272;8.052;2023-07-13T07:59:13;21.10;80.80
40960;DHT22;27842;52.272;8.052;2023-07-13T08:01:38;21.10;82.60
40960;DHT22;27842;52.272;8.052;2023-07-13T08:04:03;21.20;82.00
40960;DHT22;27842;52.272;8.052;2023-07-13T08:06:31;21.20;81.50
40960;DHT22;27842;52.272;8.052;2023-07-13T08:08:58;21.30;82.40
40960;DHT22;27842;52.272;8.052;2023-07-13T08:11:24;21.30;80.50
40960;DHT22;27842;52.272;8.052;2023-07-13T08:13:49;21.40;80.70
40960;DHT22;27842;52.272;8.052;2023-07-13T08:16:15;21.40;81.70
40960;DHT22;27842;52.272;8.052;2023-07-13T08:18:40;21.50;80.10
40960;DHT22;27842;52.272;8.052;2023-07-13T08:21:06;21.60;81.20
40960;DHT22;27842;52.272;8.052;2023-07-13T08:23:32;21.70;80.30
40960;DHT22;27842;52.272;8.052;2023-07-13T08:25:58;21.80;79.80
40960;DHT22;27842;52.272;8.052;2023-07-13T08:28:23;21.80;79.20
40960;DHT22;27842;52.272;8.052;2023-07-13T08:30:49;21.80;78.70
40960;DHT22;27842;52.272;8.052;2023-07-13T08:33:16;21.80;79.00
40960;DHT22;27842;52.272;8.052;2023-07-13T08:35:41;21.70;79.10
40960;DHT22;27842;52.272;8.052;2023-07-13T08:38:07;21.70;79.00
40960;DHT22;27842;52.272;8.052;2023-07-13T08:40:33;21.70;79.00
40960;DHT22;27842;52.272;8.052;2023-07-13T08:42:58;21.70;79.00
40960;DHT22;27842;52.272;8.052;2023-07-13T08:45:30;21.70;78.90
40960;DHT22;27842;52.272;8.052;2023-07-13T08:47:58;21.80;79.00
40960;DHT22;27842;52.272;8.052;2023-07-13T08:50:27;21.90;79.10
40960;DHT22;27842;52.272;8.052;2023-07-13T08:52:55;21.90;79.30
40960;DHT22;27842;52.272;8.052;2023-07-13T08:55:22;22.00;78.50
40960;DHT22;27842;52.272;8.052;2023-07-13T08:57:51;22.00;78.80
40960;DHT22;27842;52.272;8.052;2023-07-13T09:00:18;22.00;78.80
40960;DHT22;27842;52.272;8.052;2023-07-13T09:02:50;21.90;78.90
40960;DHT22;27842;52.272;8.052;2023-07-13T09:05:18;21.90;78.00
40960;DHT22;27842;52.272;8.052;2023-07-13T09:10:41;22.00;78.20
40960;DHT22;27842;52.272;8.052;2023-07-13T09:15:36;22.10;78.20
40960;DHT22;27842;52.272;8.052;2023-07-13T09:23:07;22.40;77.60
40960;DHT22;27842;52.272;8.052;2023-07-13T09:25:36;22.40;77.40
40960;DHT22;27842;52.272;8.052;2023-07-13T09:28:13;22.40;76.90
40960;DHT22;27842;52.272;8.052;2023-07-13T09:30:50;22.50;77.40
40960;DHT22;27842;52.272;8.052;2023-07-13T09:33:19;22.60;76.90
40960;DHT22;27842;52.272;8.052;2023-07-13T09:35:45;22.70;77.10
40960;DHT22;27842;52.272;8.052;2023-07-13T09:40:53;22.90;76.40
40960;DHT22;27842;52.272;8.052;2023-07-13T09:43:22;23.00;76.00
40960;DHT22;27842;52.272;8.052;2023-07-13T09:45:47;23.10;75.20
40960;DHT22;27842;52.272;8.052;2023-07-13T09:48:13;23.10;75.10
40960;DHT22;27842;52.272;8.052;2023-07-13T09:50:39;23.00;75.20
40960;DHT22;27842;52.272;8.052;2023-07-13T09:53:11;23.00;75.10
40960;DHT22;27842;52.272;8.052;2023-07-13T09:55:40;23.00;74.80
40960;DHT22;27842;52.272;8.052;2023-07-13T09:58:13;23.00;75.10
40960;DHT22;27842;52.272;8.052;2023-07-13T10:00:39;22.90;75.50
40960;DHT22;27842;52.272;8.052;2023-07-13T10:03:19;23.00;75.80
40960;DHT22;27842;52.272;8.052;2023-07-13T10:05:46;23.00;75.00
40960;DHT22;27842;52.272;8.052;2023-07-13T10:08:16;23.20;74.90
40960;DHT22;27842;52.272;8.052;2023-07-13T10:10:43;23.30;74.80
40960;DHT22;27842;52.272;8.052;2023-07-13T10:15:53;23.50;74.10
40960;DHT22;27842;52.272;8.052;2023-07-13T10:18:19;23.60;73.60
40960;DHT22;27842;52.272;8.052;2023-07-13T10:20:46;23.60;74.40
40960;DHT22;27842;52.272;8.052;2023-07-13T10:23:14;23.60;73.90
40960;DHT22;27842;52.272;8.052;2023-07-13T10:25:41;23.60;74.40
40960;DHT22;27842;52.272;8.052;2023-07-13T10:30:35;23.60;74.40
40960;DHT22;27842;52.272;8.052;2023-07-13T10:33:05;23.70;74.40
40960;DHT22;27842;52.272;8.052;2023-07-13T10:35:34;23.70;74.40
40960;DHT22;27842;52.272;8.052;2023-07-13T10:38:04;23.70;73.60
40960;DHT22;27842;52.272;8.052;2023-07-13T10:40:33;23.50;73.70
40960;DHT22;27842;52.272;8.052;2023-07-13T10:43:00;23.50;74.30
40960;DHT22;27842;52.272;8.052;2023-07-13T10:45:33;23.50;73.40
40960;DHT22;27842;52.272;8.052;2023-07-13T10:48:00;23.40;73.80
40960;DHT22;27842;52.272;8.052;2023-07-13T10:50:26;23.30;73.30
40960;DHT22;27842;52.272;8.052;2023-07-13T10:52:53;23.20;74.80
40960;DHT22;27842;52.272;8.052;2023-07-13T10:55:40;23.20;74.50
40960;DHT22;27842;52.272;8.052;2023-07-13T10:58:14;23.00;74.90
40960;DHT22;27842;52.272;8.052;2023-07-13T11:00:46;23.00;74.80
40960;DHT22;27842;52.272;8.052;2023-07-13T11:03:13;22.90;75.20
40960;DHT22;27842;52.272;8.052;2023-07-13T11:05:39;22.90;75.10
40960;DHT22;27842;52.272;8.052;2023-07-13T11:08:31;22.90;74.90
40960;DHT22;27842;52.272;8.052;2023-07-13T11:10:57;22.90;74.80
40960;DHT22;27842;52.272;8.052;2023-07-13T11:18:52;22.90;74.60
40960;DHT22;27842;52.272;8.052;2023-07-13T11:21:22;23.00;74.40
40960;DHT22;27842;52.272;8.052;2023-07-13T11:23:52;23.00;74.40
40960;DHT22;27842;52.272;8.052;2023-07-13T11:29:07;23.40;73.90
40960;DHT22;27842;52.272;8.052;2023-07-13T11:31:33;23.50;73.60
40960;DHT22;27842;52.272;8.052;2023-07-13T11:33:59;23.60;73.00
40960;DHT22;27842;52.272;8.052;2023-07-13T11:36:29;23.80;72.80
40960;DHT22;27842;52.272;8.052;2023-07-13T11:41:36;23.90;72.50
40960;DHT22;27842;52.272;8.052;2023-07-13T11:44:08;23.90;72.60
40960;DHT22;27842;52.272;8.052;2023-07-13T11:46:35;23.90;71.50
40960;DHT22;27842;52.272;8.052;2023-07-13T11:49:01;24.10;72.10
40960;DHT22;27842;52.272;8.052;2023-07-13T11:51:30;24.20;71.80
40960;DHT22;27842;52.272;8.052;2023-07-13T11:53:56;24.30;70.90
40960;DHT22;27842;52.272;8.052;2023-07-13T11:56:24;24.20;68.50
40960;DHT22;27842;52.272;8.052;2023-07-13T11:58:51;24.30;70.90
40960;DHT22;27842;52.272;8.052;2023-07-13T12:01:21;24.20;71.20
40960;DHT22;27842;52.272;8.052;2023-07-13T12:03:48;24.20;71.40
40960;DHT22;27842;52.272;8.052;2023-07-13T12:06:33;24.10;71.30
40960;DHT22;27842;52.272;8.052;2023-07-13T12:09:00;24.10;71.10
40960;DHT22;27842;52.272;8.052;2023-07-13T12:11:26;24.20;71.80
40960;DHT22;27842;52.272;8.052;2023-07-13T12:13:52;24.20;72.00
40960;DHT22;27842;52.272;8.052;2023-07-13T12:16:31;24.30;71.70
40960;DHT22;27842;52.272;8.052;2023-07-13T12:18:58;24.40;71.10
40960;DHT22;27842;52.272;8.052;2023-07-13T12:21:37;24.40;71.30
40960;DHT22;27842;52.272;8.052;2023-07-13T12:24:03;24.40;71.40
40960;DHT22;27842;52.272;8.052;2023-07-13T12:26:29;24.30;70.30
40960;DHT22;27842;52.272;8.052;2023-07-13T12:28:56;24.30;70.30
40960;DHT22;27842;52.272;8.052;2023-07-13T12:33:58;24.20;70.80
40960;DHT22;27842;52.272;8.052;2023-07-13T12:36:24;24.10;70.90
40960;DHT22;27842;52.272;8.052;2023-07-13T12:38:50;24.10;69.80
40960;DHT22;27842;52.272;8.052;2023-07-13T12:41:16;23.90;68.80
40960;DHT22;27842;52.272;8.052;2023-07-13T12:43:42;23.80;70.70
40960;DHT22;27842;52.272;8.052;2023-07-13T12:46:28;23.70;70.80
40960;DHT22;27842;52.272;8.052;2023-07-13T12:48:54;23.70;71.30
40960;DHT22;27842;52.272;8.052;2023-07-13T12:51:22;23.60;71.10
40960;DHT22;27842;52.272;8.052;2023-07-13T12:53:50;23.50;71.30
40960;DHT22;27842;52.272;8.052;2023-07-13T12:56:23;23.30;73.00
40960;DHT22;27842;52.272;8.052;2023-07-13T12:58:49;23.00;72.90
40960;DHT22;27842;52.272;8.052;2023-07-13T13:01:21;22.70;74.30
40960;DHT22;27842;52.272;8.052;2023-07-13T13:03:47;22.40;74.80
40960;DHT22;27842;52.272;8.052;2023-07-13T13:08:45;22.00;76.50
40960;DHT22;27842;52.272;8.052;2023-07-13T13:11:10;21.90;77.40
40960;DHT22;27842;52.272;8.052;2023-07-13T13:13:36;21.70;77.80
40960;DHT22;27842;52.272;8.052;2023-07-13T13:16:02;21.60;79.90
40960;DHT22;27842;52.272;8.052;2023-07-13T13:18:31;21.60;78.00
40960;DHT22;27842;52.272;8.052;2023-07-13T13:20:56;21.50;78.80
40960;DHT22;27842;52.272;8.052;2023-07-13T13:23:22;21.50;79.30
40960;DHT22;27842;52.272;8.052;2023-07-13T13:25:49;21.60;79.50
40960;DHT22;27842;52.272;8.052;2023-07-13T13:28:18;21.50;79.60
40960;DHT22;27842;52.272;8.052;2023-07-13T13:30:45;21.50;79.70
40960;DHT22;27842;52.272;8.052;2023-07-13T13:33:13;21.60;80.20
40960;DHT22;27842;52.272;8.052;2023-07-13T13:35:39;21.60;79.40
40960;DHT22;27842;52.272;8.052;2023-07-13T13:38:24;21.70;79.10
40960;DHT22;27842;52.272;8.052;2023-07-13T13:40:50;21.70;78.80
40960;DHT22;27842;52.272;8.052;2023-07-13T13:43:26;21.80;79.50
40960;DHT22;27842;52.272;8.052;2023-07-13T13:45:52;21.80;78.90
40960;DHT22;27842;52.272;8.052;2023-07-13T13:48:19;21.80;79.00
40960;DHT22;27842;52.272;8.052;2023-07-13T13:50:46;21.80;79.80
40960;DHT22;27842;52.272;8.052;2023-07-13T13:53:12;21.70;79.70
40960;DHT22;27842;52.272;8.052;2023-07-13T13:55:39;21.70;79.60
40960;DHT22;27842;52.272;8.052;2023-07-13T13:58:04;21.70;79.80
40960;DHT22;27842;52.272;8.052;2023-07-13T14:00:29;21.70;80.60
40960;DHT22;27842;52.272;8.052;2023-07-13T14:02:55;21.50;80.90
40960;DHT22;27842;52.272;8.052;2023-07-13T14:05:23;21.40;80.70
40960;DHT22;27842;52.272;8.052;2023-07-13T14:07:51;21.30;80.60
40960;DHT22;27842;52.272;8.052;2023-07-13T14:10:18;21.30;81.80
40960;DHT22;27842;52.272;8.052;2023-07-13T14:12:44;21.20;81.40
40960;DHT22;27842;52.272;8.052;2023-07-13T14:15:20;21.10;81.30
40960;DHT22;27842;52.272;8.052;2023-07-13T14:17:46;21.20;82.30
40960;DHT22;27842;52.272;8.052;2023-07-13T14:20:15;21.10;84.60
40960;DHT22;27842;52.272;8.052;2023-07-13T14:22:40;21.10;82.00
40960;DHT22;27842;52.272;8.052;2023-07-13T14:25:10;21.20;83.10
40960;DHT22;27842;52.272;8.052;2023-07-13T14:27:36;21.10;82.30
40960;DHT22;27842;52.272;8.052;2023-07-13T14:30:02;21.10;83.80
40960;DHT22;27842;52.272;8.052;2023-07-13T14:32:27;21.10;82.60
40960;DHT22;27842;52.272;8.052;2023-07-13T14:34:53;21.00;82.70
40960;DHT22;27842;52.272;8.052;2023-07-13T14:37:18;21.00;82.80
40960;DHT22;27842;52.272;8.052;2023-07-13T14:39:44;21.00;82.80
40960;DHT22;27842;52.272;8.052;2023-07-13T14:42:13;21.00;84.00
40960;DHT22;27842;52.272;8.052;2023-07-13T14:44:39;21.10;82.70
40960;DHT22;27842;52.272;8.052;2023-07-13T14:47:05;21.10;83.00
40960;DHT22;27842;52.272;8.052;2023-07-13T14:49:33;21.20;84.00
40960;DHT22;27842;52.272;8.052;2023-07-13T14:52:01;21.20;82.90
40960;DHT22;27842;52.272;8.052;2023-07-13T14:54:26;21.10;85.10
40960;DHT22;27842;52.272;8.052;2023-07-13T14:56:52;21.20;82.80
40960;DHT22;27842;52.272;8.052;2023-07-13T14:59:18;21.20;82.80
40960;DHT22;27842;52.272;8.052;2023-07-13T15:01:49;21.20;83.10
40960;DHT22;27842;52.272;8.052;2023-07-13T15:04:15;21.20;83.70
40960;DHT22;27842;52.272;8.052;2023-07-13T15:06:54;21.10;83.00
40960;DHT22;27842;52.272;8.052;2023-07-13T15:09:20;21.10;83.20
40960;DHT22;27842;52.272;8.052;2023-07-13T15:11:45;21.10;83.40
40960;DHT22;27842;52.272;8.052;2023-07-13T15:14:11;21.20;85.20
40960;DHT22;27842;52.272;8.052;2023-07-13T15:16:36;21.20;84.30
40960;DHT22;27842;52.272;8.052;2023-07-13T15:19:02;21.20;84.40
40960;DHT22;27842;52.272;8.052;2023-07-13T15:21:27;21.20;85.00
40960;DHT22;27842;52.272;8.052;2023-07-13T15:23:59;21.20;84.00
40960;DHT22;27842;52.272;8.052;2023-07-13T15:26:25;21.20;83.40
40960;DHT22;27842;52.272;8.052;2023-07-13T15:28:51;21.20;83.50
40960;DHT22;27842;52.272;8.052;2023-07-13T15:31:21;21.20;83.50
40960;DHT22;27842;52.272;8.052;2023-07-13T15:33:47;21.20;84.00
40960;DHT22;27842;52.272;8.052;2023-07-13T15:36:15;21.20;85.40
40960;DHT22;27842;52.272;8.052;2023-07-13T15:38:40;21.20;84.00
40960;DHT22;27842;52.272;8.052;2023-07-13T15:41:13;21.10;84.70
40960;DHT22;27842;52.272;8.052;2023-07-13T15:43:41;21.20;84.10
40960;DHT22;27842;52.272;8.052;2023-07-13T15:46:06;21.20;84.60
40960;DHT22;27842;52.272;8.052;2023-07-13T15:48:32;21.20;84.30
40960;DHT22;27842;52.272;8.052;2023-07-13T15:51:00;21.10;84.00
40960;DHT22;27842;52.272;8.052;2023-07-13T15:53:28;21.10;84.30
40960;DHT22;27842;52.272;8.052;2023-07-13T15:55:54;21.10;84.90
40960;DHT22;27842;52.272;8.052;2023-07-13T15:58:19;21.10;84.20
40960;DHT22;27842;52.272;8.052;2023-07-13T16:00:45;21.00;84.80